createdAt,value
2019-03-22T00:02:25.379Z,185.60
2019-03-22T00:04:55.074Z,179.10
2019-03-22T00:07:24.785Z,164.30
2019-03-22T00:09:54.483Z,172.17
2019-03-22T00:12:24.158Z,175.03
2019-03-22T00:14:53.821Z,175.50
2019-03-22T00:17:23.528Z,185.93
2019-03-22T00:19:53.175Z,186.97
2019-03-22T00:22:22.839Z,185.30
2019-03-22T00:24:52.529Z,196.50
2019-03-22T00:27:22.211Z,195.07
2019-03-22T00:29:54.293Z,194.50
2019-03-22T00:32:24.684Z,188.93
2019-03-22T00:34:54.388Z,206.17
2019-03-22T00:37:24.932Z,195.90
2019-03-22T00:39:54.592Z,200.43
2019-03-22T00:42:24.296Z,196.33
2019-03-22T00:44:54.736Z,200.43
2019-03-22T00:47:24.370Z,195.03
2019-03-22T00:49:54.350Z,200.13
2019-03-22T00:52:24.642Z,200.63
2019-03-22T00:54:54.276Z,196.40
2019-03-22T00:57:28.604Z,189.43
2019-03-22T00:59:56.416Z,196.50
2019-03-22T01:02:27.450Z,210.27
2019-03-22T01:04:57.212Z,193.27
2019-03-22T01:07:26.889Z,201.50
2019-03-22T01:09:56.516Z,209.93
2019-03-22T01:12:31.709Z,205.63
2019-03-22T01:15:02.247Z,202.27
2019-03-22T01:17:33.049Z,197.67
2019-03-22T01:20:02.757Z,189.50
2019-03-22T01:22:35.006Z,195.77
2019-03-22T01:25:05.087Z,202.00
2019-03-22T01:27:40.402Z,208.07
2019-03-22T01:30:09.307Z,205.17
2019-03-22T01:32:38.939Z,209.60
2019-03-22T01:35:12.490Z,209.10
2019-03-22T01:37:46.220Z,202.27
2019-03-22T01:43:31.894Z,205.60
2019-03-22T01:46:01.570Z,195.17
2019-03-22T01:48:31.229Z,200.00
2019-03-22T01:51:02.386Z,207.63
2019-03-22T01:53:32.093Z,199.93
2019-03-22T01:56:01.758Z,207.80
2019-03-22T01:58:31.342Z,201.90
2019-03-22T02:01:00.950Z,198.00
2019-03-22T02:03:32.575Z,196.83
2019-03-22T02:06:02.248Z,197.50
2019-03-22T02:08:32.194Z,194.93
2019-03-22T02:11:02.332Z,205.43
2019-03-22T02:13:31.924Z,211.33
2019-03-22T02:16:02.255Z,201.47
2019-03-22T02:18:31.948Z,212.37
2019-03-22T02:21:03.166Z,218.33
2019-03-22T02:23:32.884Z,228.83
2019-03-22T02:26:02.474Z,228.13
2019-03-22T02:28:32.164Z,223.00
2019-03-22T02:31:01.813Z,224.50
2019-03-22T02:33:31.500Z,205.27
2019-03-22T02:36:01.227Z,191.80
2019-03-22T02:38:30.942Z,178.17
2019-03-22T02:41:00.551Z,188.23
2019-03-22T02:43:30.275Z,186.57
2019-03-22T02:45:59.944Z,191.07
2019-03-22T02:48:29.530Z,193.17
2019-03-22T02:50:59.228Z,197.00
2019-03-22T02:53:28.889Z,199.60
2019-03-22T02:55:58.655Z,196.77
2019-03-22T02:58:28.404Z,198.90
2019-03-22T03:00:58.041Z,195.20
2019-03-22T03:03:27.776Z,190.60
2019-03-22T03:05:57.467Z,188.53
2019-03-22T03:08:27.134Z,189.17
2019-03-22T03:10:57.087Z,191.33
2019-03-22T03:13:26.900Z,210.03
2019-03-22T03:15:56.676Z,207.20
2019-03-22T03:18:28.098Z,214.23
2019-03-22T03:20:58.547Z,203.70
2019-03-22T03:23:28.137Z,217.47
2019-03-22T03:25:57.839Z,211.27
2019-03-22T03:28:36.514Z,217.07
2019-03-22T03:30:59.030Z,225.20
2019-03-22T03:33:28.724Z,227.20
2019-03-22T03:35:58.474Z,236.20
2019-03-22T03:38:28.130Z,221.20
2019-03-22T03:40:57.918Z,229.50
2019-03-22T03:43:27.726Z,224.00
2019-03-22T03:45:57.445Z,237.63
2019-03-22T03:48:27.091Z,246.67
2019-03-22T03:50:56.773Z,247.83
2019-03-22T03:53:26.586Z,240.90
2019-03-22T03:55:56.250Z,249.93
2019-03-22T03:58:26.009Z,239.90
2019-03-22T04:00:55.652Z,241.00
2019-03-22T04:03:25.612Z,244.80
2019-03-22T04:05:55.434Z,254.93
2019-03-22T04:08:25.218Z,267.00
2019-03-22T04:10:54.888Z,262.60
2019-03-22T04:13:24.622Z,265.63
2019-03-22T04:15:55.701Z,275.13
2019-03-22T04:18:25.448Z,243.67
2019-03-22T04:20:55.135Z,234.47
2019-03-22T04:23:24.803Z,223.93
2019-03-22T04:25:54.460Z,211.07
2019-03-22T04:28:24.155Z,222.10
2019-03-22T04:30:53.887Z,212.30
2019-03-22T04:33:23.575Z,211.63
2019-03-22T04:35:53.282Z,244.20
2019-03-22T04:38:22.997Z,216.73
2019-03-22T04:40:53.871Z,233.40
2019-03-22T04:43:23.615Z,225.00
2019-03-22T04:45:54.952Z,242.67
2019-03-22T04:48:33.140Z,229.13
2019-03-22T04:51:05.550Z,219.67
2019-03-22T04:53:41.005Z,242.37
2019-03-22T04:56:14.452Z,217.97
2019-03-22T04:58:47.210Z,220.07
2019-03-22T05:01:18.786Z,210.00
2019-03-22T05:03:48.432Z,226.40
2019-03-22T05:06:19.215Z,224.20
2019-03-22T05:08:49.788Z,212.07
2019-03-22T05:11:21.489Z,217.10
2019-03-22T05:13:53.792Z,226.13
2019-03-22T05:16:23.960Z,222.53
2019-03-22T05:18:56.504Z,196.03
2019-03-22T05:21:28.244Z,206.80
2019-03-22T05:24:02.151Z,192.10
2019-03-22T05:26:33.103Z,205.57
2019-03-22T05:29:03.859Z,223.03
2019-03-22T05:32:08.369Z,208.50
2019-03-22T05:34:38.083Z,210.53
2019-03-22T05:37:08.584Z,194.57
2019-03-22T05:39:38.262Z,196.00
2019-03-22T05:42:07.966Z,195.13
2019-03-22T05:44:37.751Z,189.30
2019-03-22T05:47:07.747Z,181.63
2019-03-22T05:49:37.960Z,190.87
2019-03-22T05:52:07.590Z,196.67
2019-03-22T05:54:37.258Z,201.07
2019-03-22T05:57:13.285Z,177.87
2019-03-22T05:59:42.727Z,189.57
2019-03-22T06:02:11.458Z,175.57
2019-03-22T06:04:41.452Z,178.23
2019-03-22T06:07:11.475Z,168.00
2019-03-22T06:09:41.146Z,184.67
2019-03-22T06:12:12.760Z,177.50
2019-03-22T06:14:42.393Z,183.13
2019-03-22T06:17:12.393Z,200.07
2019-03-22T06:19:42.301Z,177.00
2019-03-22T06:22:12.033Z,160.73
2019-03-22T06:24:41.790Z,159.80
2019-03-22T06:27:12.903Z,161.20
2019-03-22T06:29:53.303Z,154.10
2019-03-22T06:32:14.897Z,180.03
2019-03-22T06:34:45.061Z,144.47
2019-03-22T06:37:14.846Z,168.20
2019-03-22T06:39:44.511Z,136.23
2019-03-22T06:42:15.912Z,130.10
2019-03-22T06:44:45.895Z,115.10
2019-03-22T06:47:16.150Z,110.47
2019-03-22T06:49:45.837Z,109.47
2019-03-22T06:52:15.490Z,97.53
2019-03-22T06:54:45.130Z,92.07
2019-03-22T06:57:14.856Z,91.03
2019-03-22T06:59:44.562Z,87.07
2019-03-22T07:02:14.275Z,82.80
2019-03-22T07:04:43.962Z,86.47
2019-03-22T07:07:13.620Z,87.20
2019-03-22T07:09:44.688Z,83.93
2019-03-22T07:12:14.402Z,74.77
2019-03-22T07:14:44.038Z,83.13
2019-03-22T07:17:14.034Z,78.93
2019-03-22T07:19:43.798Z,87.03
2019-03-22T07:22:13.454Z,83.50
2019-03-22T07:24:43.188Z,80.43
2019-03-22T07:27:14.137Z,73.27
2019-03-22T07:29:44.127Z,85.63
2019-03-22T07:32:14.130Z,82.03
2019-03-22T07:34:44.282Z,81.77
2019-03-22T07:37:14.053Z,82.07
2019-03-22T07:39:43.807Z,78.70
2019-03-22T07:42:17.696Z,75.90
2019-03-22T07:45:06.672Z,85.13
2019-03-22T07:47:36.809Z,80.97
2019-03-22T07:50:06.894Z,80.00
2019-03-22T07:52:37.049Z,81.83
2019-03-22T07:55:07.797Z,90.70
2019-03-22T07:57:37.874Z,102.77
2019-03-22T08:00:08.039Z,92.33
2019-03-22T08:02:37.941Z,97.70
2019-03-22T08:05:08.060Z,107.70
2019-03-22T08:07:38.069Z,98.57
2019-03-22T08:10:08.371Z,92.23
2019-03-22T08:12:38.385Z,91.60
2019-03-22T08:15:08.779Z,98.60
2019-03-22T08:17:38.932Z,101.97
2019-03-22T08:20:09.061Z,99.43
2019-03-22T08:22:39.071Z,101.63
2019-03-22T08:25:09.027Z,98.73
2019-03-22T08:27:39.002Z,105.47
2019-03-22T08:30:11.161Z,96.93
2019-03-22T08:32:40.949Z,94.63
2019-03-22T08:35:10.970Z,94.87
2019-03-22T08:37:52.430Z,99.57
2019-03-22T08:40:15.714Z,101.70
2019-03-22T08:42:45.736Z,98.20
2019-03-22T08:45:15.958Z,101.00
2019-03-22T08:47:46.227Z,106.23
2019-03-22T08:50:16.043Z,104.47
2019-03-22T08:52:45.895Z,109.50
2019-03-22T08:55:15.673Z,111.43
2019-03-22T08:57:45.437Z,103.33
2019-03-22T09:00:15.567Z,109.20
2019-03-22T09:02:45.304Z,114.23
2019-03-22T09:05:14.999Z,105.90
2019-03-22T09:07:44.716Z,110.83
2019-03-22T09:10:15.323Z,114.50
2019-03-22T09:12:44.947Z,115.13
2019-03-22T09:15:16.139Z,111.63
2019-03-22T09:17:45.834Z,121.30
2019-03-22T09:20:16.532Z,120.70
2019-03-22T09:22:46.612Z,129.83
2019-03-22T09:25:16.341Z,136.07
2019-03-22T09:27:46.353Z,132.27
2019-03-22T09:30:16.467Z,132.67
2019-03-22T09:32:46.238Z,137.90
2019-03-22T09:35:16.775Z,138.73
2019-03-22T09:37:46.485Z,137.63
2019-03-22T09:40:16.242Z,148.03
2019-03-22T09:42:45.986Z,145.23
2019-03-22T09:45:17.956Z,141.97
2019-03-22T09:47:49.698Z,145.90
2019-03-22T09:50:19.498Z,155.70
2019-03-22T09:52:49.323Z,153.10
2019-03-22T09:55:19.174Z,163.17
2019-03-22T09:57:49.546Z,153.80
2019-03-22T10:00:33.081Z,169.67
2019-03-22T10:03:03.206Z,158.93
2019-03-22T10:05:32.937Z,161.97
2019-03-22T10:08:02.710Z,177.10
2019-03-22T10:10:32.431Z,173.23
2019-03-22T10:13:02.281Z,162.07
2019-03-22T10:15:31.926Z,167.50
2019-03-22T10:18:01.759Z,168.43
2019-03-22T10:20:31.556Z,169.77
2019-03-22T10:23:01.188Z,153.93
2019-03-22T10:25:31.008Z,157.33
2019-03-22T10:28:01.897Z,149.27
2019-03-22T10:30:31.736Z,146.93
2019-03-22T10:33:01.761Z,146.37
2019-03-22T10:35:32.749Z,149.30
2019-03-22T10:38:04.757Z,144.67
2019-03-22T10:40:34.342Z,139.77
2019-03-22T10:43:04.210Z,144.63
2019-03-22T10:45:33.986Z,139.50
2019-03-22T10:48:03.668Z,144.70
2019-03-22T10:50:33.482Z,133.50
2019-03-22T10:53:03.221Z,135.20
2019-03-22T10:55:35.344Z,140.53
2019-03-22T10:58:04.990Z,135.13
2019-03-22T11:00:34.738Z,141.13
2019-03-22T11:03:04.704Z,142.83
2019-03-22T11:05:34.384Z,135.67
2019-03-22T11:08:04.192Z,133.00
2019-03-22T11:10:34.276Z,140.40
2019-03-22T11:13:04.053Z,136.17
2019-03-22T11:15:35.070Z,132.40
2019-03-22T11:18:05.348Z,131.90
2019-03-22T11:20:34.997Z,140.50
2019-03-22T11:23:04.698Z,133.33
2019-03-22T11:25:34.398Z,132.53
2019-03-22T11:28:04.483Z,131.00
2019-03-22T11:30:34.209Z,130.33
2019-03-22T11:33:03.933Z,116.57
2019-03-22T11:35:33.686Z,118.53
2019-03-22T11:38:03.357Z,121.87
2019-03-22T11:40:33.141Z,119.67
2019-03-22T11:43:08.508Z,120.27
2019-03-22T11:45:34.211Z,116.60
2019-03-22T11:48:04.085Z,110.70
2019-03-22T11:50:33.740Z,110.73
2019-03-22T11:53:03.392Z,121.83
2019-03-22T11:55:33.078Z,119.07
2019-03-22T11:58:04.690Z,119.10
2019-03-22T12:00:34.626Z,115.80
2019-03-22T12:03:04.580Z,120.70
2019-03-22T12:05:40.284Z,119.67
2019-03-22T12:08:05.872Z,118.43
2019-03-22T12:10:35.586Z,106.53
2019-03-22T12:13:05.238Z,110.27
2019-03-22T12:15:34.956Z,103.00
2019-03-22T12:18:04.612Z,97.67
2019-03-22T12:20:34.192Z,98.67
2019-03-22T12:23:06.240Z,94.07
2019-03-22T12:25:37.048Z,94.03
2019-03-22T12:28:06.704Z,94.97
2019-03-22T12:30:38.646Z,99.60
2019-03-22T12:33:08.265Z,91.63
2019-03-22T12:35:42.484Z,88.40
2019-03-22T12:38:11.709Z,90.20
2019-03-22T12:40:41.366Z,86.60
2019-03-22T12:43:11.012Z,87.97
2019-03-22T12:45:40.619Z,76.20
2019-03-22T12:48:12.436Z,76.97
2019-03-22T12:50:44.583Z,78.30
2019-03-22T12:53:15.684Z,76.77
2019-03-22T12:55:45.338Z,77.37
2019-03-22T12:58:15.027Z,72.33
2019-03-22T13:00:44.688Z,71.13
2019-03-22T13:03:14.353Z,74.97
2019-03-22T13:05:44.162Z,75.00
2019-03-22T13:08:13.822Z,67.70
2019-03-22T13:10:43.490Z,68.13
2019-03-22T13:13:14.250Z,69.40
2019-03-22T13:15:44.223Z,72.10
2019-03-22T13:25:48.799Z,65.80
2019-03-22T13:28:18.392Z,61.67
2019-03-22T13:30:50.219Z,63.87
2019-03-22T13:33:20.012Z,69.00
2019-03-22T13:35:49.596Z,63.37
2019-03-22T13:38:20.791Z,66.33
2019-03-22T13:40:50.505Z,60.73
2019-03-22T13:43:20.104Z,63.47
2019-03-22T13:45:49.747Z,62.70
2019-03-22T13:48:19.423Z,72.13
2019-03-22T13:50:49.197Z,64.97
2019-03-22T13:53:19.035Z,66.27
2019-03-22T13:55:49.753Z,66.70
2019-03-22T13:58:19.469Z,68.13
2019-03-22T14:00:49.195Z,69.43
2019-03-22T14:03:19.735Z,71.87
2019-03-22T14:05:49.406Z,64.63
2019-03-22T14:08:19.956Z,70.33
2019-03-22T14:10:49.948Z,66.50
2019-03-22T14:13:19.862Z,64.43
2019-03-22T14:15:50.677Z,70.33
2019-03-22T14:18:20.421Z,69.57
2019-03-22T14:20:50.002Z,63.40
2019-03-22T14:23:22.088Z,70.10
2019-03-22T14:25:51.826Z,65.60
2019-03-22T14:28:21.728Z,66.40
2019-03-22T14:30:51.682Z,66.93
2019-03-22T14:33:21.358Z,71.00
2019-03-22T14:35:51.043Z,63.27
2019-03-22T14:38:20.734Z,71.17
2019-03-22T14:40:50.392Z,67.43
2019-03-22T14:43:21.461Z,70.97
2019-03-22T14:45:51.301Z,75.70
2019-03-22T14:48:20.942Z,72.50
2019-03-22T14:50:50.642Z,71.90
2019-03-22T14:53:20.487Z,73.23
2019-03-22T14:55:50.603Z,78.80
2019-03-22T14:58:22.583Z,75.57
2019-03-22T15:00:52.277Z,80.43
2019-03-22T15:03:26.111Z,76.37
2019-03-22T15:05:56.608Z,81.07
2019-03-22T15:08:26.427Z,84.20
2019-03-22T15:10:56.154Z,84.60
2019-03-22T15:13:36.169Z,81.47
2019-03-22T15:16:16.827Z,80.17
2019-03-22T15:18:55.355Z,84.37
2019-03-22T15:21:42.999Z,84.27
2019-03-22T15:24:28.785Z,85.97
2019-03-22T15:27:29.803Z,92.00
2019-03-22T15:30:30.510Z,108.83
2019-03-22T15:33:13.601Z,120.13
2019-03-22T15:36:01.364Z,124.07
2019-03-22T15:39:00.400Z,128.20
2019-03-22T15:41:32.394Z,134.67
2019-03-22T15:44:03.324Z,127.53
2019-03-22T15:46:33.292Z,123.53
2019-03-22T15:49:04.001Z,123.80
2019-03-22T15:51:33.734Z,130.50
2019-03-22T15:54:03.415Z,132.57
2019-03-22T15:56:33.202Z,130.50
2019-03-22T15:59:04.285Z,134.50
2019-03-22T16:01:34.159Z,139.33
2019-03-22T16:04:04.108Z,139.50
2019-03-22T16:06:33.766Z,129.33
2019-03-22T16:09:04.651Z,142.60
2019-03-22T16:11:36.273Z,143.73
2019-03-22T16:14:05.943Z,142.43
2019-03-22T16:16:35.743Z,142.30
2019-03-22T16:19:05.453Z,139.67
2019-03-22T16:21:35.171Z,157.00
2019-03-22T16:24:06.668Z,136.20
2019-03-22T16:26:36.350Z,141.47
2019-03-22T16:29:06.069Z,141.87
2019-03-22T16:31:36.812Z,138.57
2019-03-22T16:34:06.458Z,126.73
2019-03-22T16:36:37.223Z,130.87
2019-03-22T16:39:10.647Z,131.23
2019-03-22T16:41:40.317Z,123.20
2019-03-22T16:44:10.011Z,135.17
2019-03-22T16:46:39.698Z,125.23
2019-03-22T16:49:11.868Z,143.70
2019-03-22T16:51:41.525Z,129.43
2019-03-22T16:54:12.007Z,133.47
2019-03-22T16:56:42.931Z,119.63
2019-03-22T16:59:12.566Z,126.73
2019-03-22T17:01:42.243Z,142.50
2019-03-22T17:04:11.912Z,136.00
2019-03-22T17:06:41.564Z,144.63
2019-03-22T17:09:11.197Z,154.67
2019-03-22T17:11:40.854Z,146.27
2019-03-22T17:14:14.648Z,156.47
2019-03-22T17:16:47.386Z,155.40
2019-03-22T17:19:19.168Z,163.37
2019-03-22T17:21:49.218Z,172.93
2019-03-22T17:24:19.010Z,166.13
2019-03-22T17:26:48.850Z,169.70
2019-03-22T17:29:19.640Z,167.17
2019-03-22T17:31:49.641Z,181.57
2019-03-22T17:34:19.238Z,179.63
2019-03-22T17:36:51.134Z,193.23
2019-03-22T17:39:20.720Z,196.30
2019-03-22T17:41:50.404Z,176.23
2019-03-22T17:44:20.046Z,181.70
2019-03-22T17:46:49.975Z,179.73
2019-03-22T17:49:22.019Z,178.70
2019-03-22T17:51:52.783Z,171.37
2019-03-22T17:54:25.468Z,166.20
2019-03-22T17:56:59.307Z,173.47
2019-03-22T17:59:31.053Z,189.20
2019-03-22T18:02:02.098Z,192.30
2019-03-22T18:04:35.373Z,190.20
2019-03-22T18:07:05.443Z,212.77
2019-03-22T18:09:36.683Z,203.40
2019-03-22T18:12:06.353Z,199.03
2019-03-22T18:14:36.011Z,219.03
2019-03-22T18:17:05.764Z,185.30
2019-03-22T18:19:35.658Z,221.37
2019-03-22T18:22:05.381Z,192.43
2019-03-22T18:24:35.200Z,212.80
2019-03-22T18:27:05.465Z,226.67
2019-03-22T18:29:41.181Z,218.10
2019-03-22T18:32:11.067Z,237.67
2019-03-22T18:34:40.978Z,226.97
2019-03-22T18:37:10.729Z,241.10
2019-03-22T18:39:44.998Z,242.87
2019-03-22T18:42:14.566Z,245.73
2019-03-22T18:44:45.807Z,234.60
2019-03-22T18:47:15.386Z,227.30
2019-03-22T18:49:45.022Z,220.90
2019-03-22T18:52:14.681Z,221.33
2019-03-22T18:54:44.254Z,238.00
2019-03-22T18:57:13.946Z,225.60
2019-03-22T18:59:43.895Z,213.00
2019-03-22T19:02:13.896Z,206.67
2019-03-22T19:04:44.299Z,224.37
2019-03-22T19:07:14.611Z,205.43
2019-03-22T19:09:45.961Z,197.23
2019-03-22T19:12:15.534Z,215.23
2019-03-22T19:14:45.331Z,219.60
2019-03-22T19:17:14.899Z,214.07
2019-03-22T19:19:44.579Z,232.97
2019-03-22T19:22:14.311Z,231.13
2019-03-22T19:24:44.100Z,207.57
2019-03-22T19:27:13.713Z,212.40
2019-03-22T19:29:44.566Z,231.47
2019-03-22T19:32:14.199Z,237.63
2019-03-22T19:34:54.602Z,240.07
2019-03-22T19:37:23.726Z,232.60
2019-03-22T19:39:54.503Z,224.73
2019-03-22T19:42:24.289Z,252.33
2019-03-22T19:44:54.494Z,235.13
2019-03-22T19:47:26.048Z,240.17
2019-03-22T19:50:01.126Z,247.57
2019-03-22T19:52:30.821Z,242.63
2019-03-22T19:55:00.822Z,268.63
2019-03-22T19:57:30.528Z,251.80
2019-03-22T20:00:00.339Z,244.00
2019-03-22T20:02:30.109Z,251.73
2019-03-22T20:05:04.680Z,234.67
2019-03-22T20:07:31.528Z,252.90
2019-03-22T20:10:04.932Z,244.80
2019-03-22T20:12:36.565Z,235.93
2019-03-22T20:15:11.378Z,229.50
2019-03-22T20:17:43.118Z,244.57
2019-03-22T20:20:15.625Z,223.00
2019-03-22T20:22:46.176Z,236.33
2019-03-22T20:25:15.807Z,208.70
2019-03-22T20:27:45.459Z,211.90
2019-03-22T20:30:15.451Z,194.97
2019-03-22T20:32:45.126Z,215.10
2019-03-22T20:35:16.897Z,192.70
2019-03-22T20:37:47.075Z,191.70
2019-03-22T20:40:16.939Z,197.77
2019-03-22T20:42:46.584Z,200.90
2019-03-22T20:45:24.228Z,179.20
2019-03-22T20:47:47.672Z,178.43
2019-03-22T20:50:18.214Z,180.07
2019-03-22T20:52:47.923Z,160.60
2019-03-22T20:55:17.565Z,180.57
2019-03-22T20:57:47.225Z,169.87
2019-03-22T21:00:17.208Z,167.90
2019-03-22T21:02:47.232Z,152.43
2019-03-22T21:05:26.421Z,170.70
2019-03-22T21:07:49.890Z,146.23
2019-03-22T21:10:19.567Z,156.83
2019-03-22T21:12:49.129Z,141.90
2019-03-22T21:15:24.309Z,148.70
2019-03-22T21:17:50.252Z,160.03
2019-03-22T21:20:19.901Z,164.37
2019-03-22T21:22:49.543Z,158.27
2019-03-22T21:25:19.604Z,148.27
2019-03-22T21:27:49.254Z,144.53
2019-03-22T21:30:19.028Z,146.40
2019-03-22T21:32:49.169Z,147.23
2019-03-22T21:35:22.820Z,138.87
2019-03-22T21:37:50.343Z,139.30
2019-03-22T21:40:20.065Z,132.00
2019-03-22T21:42:50.652Z,140.33
2019-03-22T21:45:23.765Z,137.23
2019-03-22T21:48:02.135Z,137.90
2019-03-22T21:50:38.455Z,146.93
2019-03-22T21:53:17.683Z,143.63
2019-03-22T21:55:54.217Z,139.13
2019-03-22T21:58:30.162Z,152.70
2019-03-22T22:01:00.510Z,141.17
2019-03-22T22:03:30.176Z,116.57
2019-03-22T22:06:01.275Z,129.30
2019-03-22T22:08:34.295Z,132.60
2019-03-22T22:11:06.908Z,133.07
2019-03-22T22:13:36.820Z,123.47
2019-03-22T22:16:06.864Z,124.13
2019-03-22T22:18:40.577Z,124.77
2019-03-22T22:21:10.505Z,118.00
2019-03-22T22:23:40.159Z,118.97
2019-03-22T22:26:10.992Z,115.63
2019-03-22T22:28:40.938Z,114.87
2019-03-22T22:31:12.697Z,107.20
2019-03-22T22:33:42.595Z,108.13
2019-03-22T22:36:12.407Z,101.40
2019-03-22T22:38:42.075Z,114.03
2019-03-22T22:41:12.185Z,112.73
2019-03-22T22:43:42.304Z,110.77
2019-03-22T22:46:13.160Z,112.37
2019-03-22T22:48:42.795Z,107.83
2019-03-22T22:51:12.513Z,111.03
2019-03-22T22:53:42.383Z,109.10
2019-03-22T22:56:12.050Z,114.17
2019-03-22T22:58:41.734Z,111.97
2019-03-22T23:01:11.481Z,112.20
2019-03-22T23:03:41.233Z,111.23
2019-03-22T23:06:10.829Z,108.47
2019-03-22T23:08:40.492Z,101.57
2019-03-22T23:11:10.627Z,98.40
2019-03-22T23:13:42.648Z,100.63
2019-03-22T23:16:12.393Z,103.03
2019-03-22T23:18:42.376Z,97.57
2019-03-22T23:21:12.019Z,99.53
2019-03-22T23:23:41.623Z,96.33
2019-03-22T23:26:11.329Z,95.20
2019-03-22T23:28:41.460Z,92.37
2019-03-22T23:31:11.190Z,89.97
2019-03-22T23:33:41.207Z,100.80
2019-03-22T23:36:19.744Z,98.87
2019-03-22T23:38:42.360Z,89.77
2019-03-22T23:41:11.942Z,100.93
2019-03-22T23:43:41.609Z,100.27
2019-03-22T23:46:11.257Z,104.80
2019-03-22T23:48:41.826Z,96.43
2019-03-22T23:51:11.511Z,98.73
2019-03-22T23:53:41.317Z,98.67
2019-03-22T23:56:11.022Z,107.83
2019-03-22T23:58:40.693Z,107.77
